ADDS METAR Data INFO
IDs: Format: Raw Decoded Include TAF

Data at: 2111 UTC 22 Oct 2017

KCMD 222055Z AUTO 13006KT 10SM SCT060 SCT070 23/17 A3008 RMK AO2 T02320173
KCMD 222035Z AUTO 13008KT 100V170 10SM SCT060 24/17 A3008 RMK AO2 T02350174
KCMD 222015Z AUTO 14007KT 100V160 10SM 24/17 A3009 RMK AO2 T02370173 PWINO
KCMD 221955Z AUTO 14007KT 10SM SCT028 SCT046 24/17 A3010 RMK AO2 T02370173
KCMD 221935Z AUTO 14006KT 10SM SCT028 SCT036 SCT044 24/17 A3010 RMK AO2 T02390174
KCMD 221915Z AUTO 16009KT 120V190 10SM SCT032 24/17 A3011 RMK AO2 T02390173
KCMD 221855Z AUTO 15008G18KT 10SM SCT029 SCT035 24/17 A3011 RMK AO2 T02400173
KCMD 221835Z AUTO 16014G19KT 10SM SCT028 SCT033 SCT040 24/17 A3012 RMK AO2 T02420173
KCMD 221815Z AUTO 14005KT 10SM SCT028 BKN035 24/18 A3013 RMK AO2 T02360175
KCMD 221755Z AUTO 16008KT 10SM SCT026 SCT033 24/17 A3014 RMK AO2 T02350173 10240 20155
KCMD 221735Z AUTO 15009G15KT 120V180 10SM SCT022 SCT029 SCT045 24/17 A3016 RMK AO2 T02350170
KCMD 221715Z AUTO 15007KT 10SM SCT024 BKN030 BKN050 23/17 A3016 RMK AO2 T02260171
KCMD 221655Z AUTO 17011G18KT 10SM BKN026 BKN032 BKN050 23/17 A3017 RMK AO2 T02280170
KCMD 221635Z AUTO 15009G19KT 120V180 10SM BKN023 BKN050 23/17 A3017 RMK AO2 T02290170
KCMD 221615Z AUTO 16011G20KT 10SM BKN021 BKN028 22/17 A3017 RMK AO2 T02220169
KCMD 221555Z AUTO 16010G15KT 10SM BKN021 BKN028 22/17 A3018 RMK AO2 T02190169
KCMD 221535Z AUTO 15012G20KT 10SM OVC019 22/17 A3018 RMK AO2 T02150166
KCMD 221515Z AUTO 14010G15KT 110V170 10SM OVC017 21/16 A3017 RMK AO2 T02100164
KCMD 221455Z AUTO 14006KT 110V170 10SM BKN017 21/16 A3017 RMK AO2 T02050160
KCMD 221435Z AUTO 13009KT 100V160 10SM SCT017 20/16 A3018 RMK AO2 T02000156
KCMD 221415Z AUTO 13009G15KT 100V160 10SM SCT018 SCT031 20/15 A3018 RMK AO2 T01950153
KCMD 221355Z AUTO 14008KT 110V170 10SM SCT029 SCT038 19/15 A3019 RMK AO2 T01890152
KCMD 221335Z AUTO 15005KT 10SM SCT029 SCT038 18/15 A3020 RMK AO2 T01830150
KCMD 221315Z AUTO 13005KT 10SM CLR 17/15 A3020 RMK AO2 T01720145
KCMD 221255Z AUTO 13005KT 10SM SCT028 16/14 A3020 RMK AO2 T01610142
KCMD 221235Z AUTO 14003KT 10SM CLR 16/14 A3021 RMK AO2 T01580140
KCMD 221215Z AUTO 14005KT 10SM CLR 16/14 A3021 RMK AO2 T01570138
KCMD 221155Z AUTO 15005KT 10SM CLR 16/14 A3020 RMK AO2 T01560135 10172 20155
KCMD 221135Z AUTO 13004KT 10SM CLR 16/13 A3020 RMK AO2 T01550134
KCMD 221115Z AUTO 14005KT 10SM CLR 16/13 A3019 RMK AO2 T01570132
KCMD 221055Z AUTO 15005KT 10SM CLR 16/13 A3019 RMK AO2 T01570130
KCMD 221035Z AUTO 00000KT 10SM CLR 16/13 A3019 RMK AO2 T01550128
KCMD 221015Z AUTO 13005KT 10SM CLR 16/13 A3018 RMK AO2 T01590126
KCMD 220955Z AUTO 14004KT 10SM CLR 16/13 A3017 RMK AO2 T01600125
KCMD 220935Z AUTO 13005KT 10SM CLR 16/13 A3017 RMK AO2 T01620125
KCMD 220915Z AUTO 13004KT 10SM CLR 17/12 A3017 RMK AO2 T01650123
KCMD 220855Z AUTO 12006KT 10SM CLR 17/12 A3017 RMK AO2 T01650123
KCMD 220835Z AUTO 12005KT 10SM CLR 17/12 A3017 RMK AO2 T01670123
KCMD 220815Z AUTO 12005KT 10SM CLR 17/12 A3017 RMK AO2 T01700124
KCMD 220755Z AUTO 13005KT 10SM CLR 17/13 A3019 RMK AO2 T01710125
KCMD 220735Z AUTO 13005KT 10SM CLR 17/13 A3018 RMK AO2 T01720129
KCMD 220715Z AUTO 13006KT 10SM CLR 17/14 A3019 RMK AO2 T01700135
KCMD 220655Z AUTO 12005KT 10SM CLR 17/14 A3019 RMK AO2 T01690138
KCMD 220635Z AUTO 13006KT 10SM CLR 17/14 A3020 RMK AO2 T01700140
KCMD 220615Z AUTO 13006KT 10SM CLR 17/14 A3021 RMK AO2 T01710141
KCMD 220555Z AUTO 12005KT 10SM CLR 17/14 A3021 RMK AO2 T01700141 10203 20170 402570140
KCMD 220535Z AUTO 13005KT 10SM CLR 17/14 A3022 RMK AO2 T01710142
KCMD 220515Z AUTO 12003KT 10SM CLR 17/14 A3023 RMK AO2 T01710143
KCMD 220455Z AUTO 12003KT 10SM CLR 17/15 A3023 RMK AO2 T01710145
KCMD 220435Z AUTO 12004KT 10SM CLR 18/15 A3024 RMK AO2 T01750145
KCMD 220415Z AUTO 12003KT 10SM CLR 18/15 A3024 RMK AO2 T01750146
KCMD 220355Z AUTO 12003KT 10SM CLR 18/15 A3024 RMK AO2 T01790145
KCMD 220335Z AUTO 12003KT 10SM CLR 18/15 A3024 RMK AO2 T01810147
KCMD 220315Z AUTO 00000KT 10SM CLR 18/15 A3024 RMK AO2 T01820146
KCMD 220255Z AUTO 00000KT 10SM CLR 18/15 A3024 RMK AO2 T01840146
KCMD 220235Z AUTO 15003KT 10SM CLR 19/15 A3024 RMK AO2 T01880146
KCMD 220215Z AUTO 14003KT 10SM CLR 19/15 A3024 RMK AO2 T01900145
KCMD 220155Z AUTO 16003KT 10SM CLR 19/15 A3024 RMK AO2 T01910145
KCMD 220135Z AUTO 16004KT 10SM CLR 20/14 A3023 RMK AO2 T01950144
KCMD 220115Z AUTO 00000KT 10SM CLR 20/14 A3022 RMK AO2 T01960143
KCMD 220055Z AUTO 00000KT 10SM CLR 20/14 A3023 RMK AO2 T01970142
KCMD 220035Z AUTO 17003KT 10SM SCT042 20/14 A3023 RMK AO2 T01990140
KCMD 220015Z AUTO 00000KT 10SM CLR 20/14 A3022 RMK AO2 T02020140
KCMD 212355Z AUTO 12003KT 10SM CLR 20/14 A3021 RMK AO2 T02020140 10257 20202
KCMD 212335Z AUTO 12003KT 10SM CLR 21/14 A3021 RMK AO2 T02050139
KCMD 212315Z AUTO 00000KT 10SM CLR 21/14 A3021 RMK AO2 T02090138
KCMD 212255Z AUTO 00000KT 10SM CLR 22/14 A3021 RMK AO2 T02150137
KCMD 212235Z AUTO 12003KT 10SM CLR 22/14 A3021 RMK AO2 T02210136
KCMD 212215Z AUTO 14003KT 10SM CLR 23/14 A3020 RMK AO2 T02250139
KCMD 212155Z AUTO 14003KT 10SM CLR 23/14 A3020 RMK AO2 T02300140
KCMD 212135Z AUTO 12005KT 10SM CLR 23/14 A3020 RMK AO2 T02320141
KCMD 212115Z AUTO 15003KT 10SM CLR 24/14 A3020 RMK AO2 T02370140
KCMD 212055Z AUTO 00000KT 10SM CLR 24/15 A3021 RMK AO2 T02410145
KCMD 212035Z AUTO 14004KT 10SM CLR 24/14 A3021 RMK AO2 T02440137
KCMD 212015Z AUTO 16004KT 10SM CLR 24/14 A3020 RMK AO2 T02410140
KCMD 211955Z AUTO 16006KT 10SM CLR 24/14 A3021 RMK AO2 T02440142
KCMD 211935Z AUTO 15005KT 10SM CLR 25/14 A3020 RMK AO2 T02530143
KCMD 211915Z AUTO 14005KT 10SM CLR 26/14 A3021 RMK AO2 T02550142
KCMD 211855Z AUTO 19008KT 10SM CLR 26/15 A3022 RMK AO2 T02550146
KCMD 211835Z AUTO 17009G14KT 10SM CLR 26/15 A3023 RMK AO2 T02560146
KCMD 211815Z AUTO 14009KT 10SM SCT034 26/15 A3023 RMK AO2 T02550146
KCMD 211755Z AUTO 18008G14KT 10SM SCT033 26/15 A3024 RMK AO2 T02560151 10256 20140
KCMD 211735Z AUTO 18011G16KT 10SM SCT029 25/15 A3025 RMK AO2 T02450154
KCMD 211715Z AUTO 16008G14KT 10SM SCT027 25/16 A3026 RMK AO2 T02460159
KCMD 211655Z AUTO 15009G15KT 10SM SCT027 24/16 A3026 RMK AO2 T02350159
KCMD 211635Z AUTO 16008KT 10SM CLR 23/16 A3027 RMK AO2 T02300156
KCMD 211615Z AUTO 14007KT 10SM CLR 23/15 A3027 RMK AO2 T02260152
KCMD 211555Z AUTO 14007KT 10SM CLR 23/15 A3027 RMK AO2 T02260151
KCMD 211535Z AUTO 14006KT 10SM CLR 22/15 A3027 RMK AO2 T02170146
KCMD 211515Z AUTO 16006KT 10SM CLR 21/14 A3027 RMK AO2 T02060140
KCMD 211455Z AUTO 17007KT 10SM CLR 21/13 A3027 RMK AO2 T02060133
KCMD 211435Z AUTO 11003KT 10SM CLR 19/12 A3028 RMK AO2 T01910119
KCMD 211415Z AUTO 12004KT 10SM CLR 18/11 A3028 RMK AO2 T01790109
KCMD 211355Z AUTO 11004KT 10SM CLR 17/10 A3028 RMK AO2 T01660098
KCMD 211335Z AUTO 12005KT 10SM CLR 16/09 A3027 RMK AO2 T01590091
KCMD 211315Z AUTO 11006KT 10SM CLR 16/08 A3027 RMK AO2 T01550083
KCMD 211255Z AUTO 12005KT 10SM CLR 16/08 A3026 RMK AO2 T01550079
KCMD 211235Z AUTO 11005KT 10SM CLR 15/08 A3025 RMK AO2 T01450076
KCMD 211215Z AUTO 11004KT 10SM CLR 14/08 A3025 RMK AO2 T01410075
KCMD 211155Z AUTO 12004KT 10SM CLR 14/08 A3024 RMK AO2 T01420075 10151 20140
KCMD 211135Z AUTO 12004KT 10SM CLR 14/07 A3023 RMK AO2 T01410074
KCMD 211115Z AUTO 12004KT 10SM CLR 14/08 A3023 RMK AO2 T01400075
KCMD 211055Z AUTO 12004KT 10SM CLR 14/08 A3022 RMK AO2 T01410075
KCMD 211035Z AUTO 12004KT 10SM CLR 14/08 A3021 RMK AO2 T01410075
KCMD 211015Z AUTO 11005KT 10SM CLR 14/08 A3020 RMK AO2 T01420075
KCMD 210955Z AUTO 12004KT 10SM CLR 14/08 A3020 RMK AO2 T01420076
KCMD 210935Z AUTO 11005KT 10SM CLR 15/08 A3019 RMK AO2 T01450075
KCMD 210915Z AUTO 12005KT 10SM CLR 15/08 A3020 RMK AO2 T01450076